• Join FlightAware (Why Join?)
  • Login
  • US Flag 
03:32PM EST


 

Airport Tracker/Info


-or-


 

Live Flight TrackerFlight Track Log ✈ CHB6277 ✈ 05-Aug-2014 ✈ ZUCK / CKG - ZGKL / KWL

Flight Track Log - Related Links

Times and Time Zones

All times are in EDT time to prevent confusion due to time zone crossing. See the CHB6277 flight status page for this flight to view local times or setup timezone preferences in your user account.

Time Position Orientation Groundspeed Altitude Reporting Facility
EDT Latitude Longitude Course Direction KTS MPH feet Rate Location/Type
09:54AM 29.4093 106.8865 145° Southeast  Level Estimated
09:55AM 29.3472 106.9354 146° Southeast  Level Estimated
09:56AM 29.2851 106.9843 146° Southeast  Level Estimated
09:57AM 29.2230 107.0331 146° Southeast  Level Estimated
09:58AM 29.1609 107.0818 146° Southeast  Level Estimated
09:59AM 29.0987 107.1305 146° Southeast  Level Estimated
10:00AM 29.0366 107.1792 146° Southeast  Level Estimated
10:01AM 28.9744 107.2277 146° Southeast  Level Estimated
10:02AM 28.9122 107.2762 146° Southeast  Level Estimated
10:03AM 28.8500 107.3247 146° Southeast  Level Estimated
10:04AM 28.7878 107.3731 146° Southeast  Level Estimated
10:05AM 28.7255 107.4214 146° Southeast  Level Estimated
10:06AM 28.6633 107.4697 146° Southeast  Level Estimated
10:07AM 28.6010 107.5179 146° Southeast  Level Estimated
10:08AM 28.5387 107.5661 146° Southeast  Level Estimated
10:09AM 28.4764 107.6142 146° Southeast  Level Estimated
10:10AM 28.4140 107.6622 146° Southeast  Level Estimated
10:11AM 28.3517 107.7102 146° Southeast  Level Estimated
10:12AM 28.2893 107.7582 146° Southeast  Level Estimated
10:13AM 28.2269 107.8061 146° Southeast  Level Estimated
10:14AM 28.1646 107.8539 146° Southeast  Level Estimated
10:15AM 28.1021 107.9016 146° Southeast  Level Estimated
10:16AM 28.0397 107.9493 146° Southeast  Level Estimated
10:17AM 27.9773 107.9970 146° Southeast  Level Estimated
10:18AM 27.9148 108.0446 146° Southeast  Level Estimated
10:19AM 27.8523 108.0922 146° Southeast  Level Estimated
10:20AM 27.7898 108.1396 146° Southeast  Level Estimated
10:21AM 27.7273 108.1871 146° Southeast  Level Estimated
10:22AM 27.6648 108.2345 146° Southeast  Level Estimated
10:23AM 27.6022 108.2818 146° Southeast  Level Estimated
10:24AM 27.5397 108.3291 146° Southeast  Level Estimated
10:25AM 27.4771 108.3763 146° Southeast  Level Estimated
10:26AM 27.4145 108.4235 146° Southeast  Level Estimated
10:27AM 27.3519 108.4706 146° Southeast  Level Estimated
10:28AM 27.2893 108.5176 146° Southeast  Level Estimated
10:29AM 27.2266 108.5647 146° Southeast  Level Estimated
10:30AM 27.1640 108.6116 146° Southeast  Level Estimated
10:31AM 27.1013 108.6585 146° Southeast  Level Estimated
10:32AM 27.0386 108.7054 146° Southeast  Level Estimated
10:33AM 26.9759 108.7522 146° Southeast  Level Estimated
10:34AM 26.9132 108.7989 146° Southeast  Level Estimated
10:35AM 26.8505 108.8456 146° Southeast  Level Estimated
10:36AM 26.7877 108.8923 146° Southeast  Level Estimated
10:37AM 26.7249 108.9388 146° Southeast  Level Estimated
10:38AM 26.6622 108.9854 146° Southeast  Level Estimated
10:39AM 26.5994 109.0319 146° Southeast  Level Estimated
10:40AM 26.5366 109.0783 147° Southeast  Level Estimated
10:41AM 26.4737 109.1247 147° Southeast  Level Estimated
10:42AM 26.4109 109.1710 147° Southeast  Level Estimated
10:43AM 26.3480 109.2173 147° Southeast  Level Estimated
10:44AM 26.2852 109.2635 147° Southeast  Level Estimated
10:45AM 26.2223 109.3097 147° Southeast  Level Estimated
10:46AM 26.1594 109.3559 147° Southeast  Level Estimated
10:47AM 26.0965 109.4020 147° Southeast  Level Estimated
10:48AM 26.0335 109.4480 147° Southeast  Level Estimated
10:49AM 25.9706 109.4940 147° Southeast  Level Estimated
10:50AM 25.9076 109.5399 147° Southeast  Level Estimated
10:51AM 25.8447 109.5858 147° Southeast  Level Estimated
10:52AM 25.7817 109.6317 147° Southeast  Level Estimated
10:53AM 25.7187 109.6774 147° Southeast  Level Estimated
10:54AM 25.6557 109.7232 147° Southeast  Level Estimated
10:55AM 25.5926 109.7689 147° Southeast  Level Estimated
10:56AM 25.5296 109.8145 147° Southeast  Level Estimated
10:57AM 25.4665 109.8601 147° Southeast  Level Estimated
10:58AM 25.4035 109.9057 147° Southeast  Level Estimated
10:59AM 25.3404 109.9512 147° Southeast  Level Estimated
11:00AM 25.2773 109.9966 147° Southeast  Level Estimated
11:01AM 25.2181 110.0392 147° Southeast  Level Estimated
11:02AM 25.2181 110.0392 North  Level Estimated
11:03AM 25.2181 110.0392 North  Level Estimated
11:04AM 25.2181 110.0392 North  Level Estimated
11:05AM 25.2181 110.0392 North  Level Estimated
11:06AM 25.2181 110.0392 North  Level Estimated
11:07AM 25.2181 110.0392 North  Level Estimated
11:08AM 25.2181 110.0392 North  Level Estimated
11:09AM 25.2181 110.0392 North  Level Estimated
11:10AM 25.2181 110.0392 North  Level Estimated
11:11AM 25.2181 110.0392 North  Level Estimated
11:12AM 25.2181 110.0392 North  Level Estimated
11:13AM 25.2181 110.0392 North  Level Estimated
11:14AM 25.2181 110.0392 North  Level Estimated
11:15AM 25.2181 110.0392 North  Level Estimated
11:16AM 25.2181 110.0392 North  Level Estimated
11:17AM 25.2181 110.0392 North  Level Estimated